Wellington, Kentucky
Current Conditions -  °F | °C
As of 6:10 AM on Friday 28 Nov 2014 (Local Time) from KSYM Reporting Station
Overcast Overcast  
Wind Chill: 25°   Ceiling: 3600
Heat Index: 25°   Visibility: 10mi
Dew Point: 19°   Wind: 0mph
Humidity: 80%   Direction: NA
Pressure: 30.41"   Gusts: NA
Location:  37.98°N, 83.47°W
Report Text: KSYM 281110Z AUTO 00000KT 10SM SCT028 OVC036 M04/M07 A3041 RMK AO2
Loading
Personal Weather Stations






























Interactive Weather Map New forecast layout! Learn more

10-Day Weather Forecast

Advertisements
Track Severe Weather on mobile